createdAt,value
2016-01-17T10:43:20.715Z,60
2016-01-17T10:44:05.968Z,60
2016-01-17T10:45:05.954Z,60
2016-01-17T10:46:06.004Z,56
2016-01-17T10:47:06.054Z,60
2016-01-17T10:48:06.120Z,56
2016-01-17T10:49:06.154Z,52
2016-01-17T10:50:06.390Z,52
2016-01-17T10:51:06.221Z,48
2016-01-17T10:52:06.302Z,44
2016-01-17T10:53:06.320Z,40
2016-01-17T10:54:06.386Z,28
2016-01-17T10:55:06.434Z,52
2016-01-17T10:56:06.469Z,52
2016-01-17T10:57:06.519Z,48
2016-01-17T10:58:06.567Z,36
2016-01-17T10:59:06.649Z,36
2016-01-17T11:00:06.698Z,36
2016-01-17T11:01:06.716Z,32
2016-01-17T11:02:06.782Z,36
2016-01-17T11:03:08.253Z,32
2016-01-17T11:04:06.866Z,32
2016-01-17T11:05:06.915Z,32
2016-01-17T11:06:06.980Z,32
2016-01-17T11:07:07.030Z,32
2016-01-17T11:08:07.079Z,32
2016-01-17T11:09:07.097Z,32
2016-01-17T11:10:07.179Z,32
2016-01-17T11:11:07.213Z,36
2016-01-17T11:12:07.277Z,32
2016-01-17T11:13:07.343Z,32
2016-01-17T11:14:07.345Z,28
2016-01-17T11:15:07.395Z,28
2016-01-17T11:16:07.476Z,28
2016-01-17T11:17:07.509Z,32
2016-01-17T11:18:07.575Z,32
2016-01-17T11:19:07.609Z,32
2016-01-17T11:20:07.674Z,32
2016-01-17T11:21:07.723Z,32
2016-01-17T11:22:07.789Z,32
2016-01-17T11:23:07.839Z,32
2016-01-17T11:24:07.903Z,32
2016-01-17T11:25:07.922Z,32
2016-01-17T11:26:07.987Z,36
2016-01-17T11:27:08.006Z,36
2016-01-17T11:28:08.070Z,36
2016-01-17T11:29:08.136Z,40
2016-01-17T11:30:08.217Z,40
2016-01-17T11:31:08.219Z,40
2016-01-17T11:32:08.284Z,56
2016-01-17T11:33:08.334Z,44
2016-01-17T11:34:08.383Z,44
2016-01-17T11:35:10.308Z,48
2016-01-17T11:36:08.513Z,68
2016-01-17T11:37:08.563Z,52
2016-01-17T11:38:08.613Z,56
2016-01-17T11:39:08.710Z,56
2016-01-17T11:40:08.696Z,56
2016-01-17T11:41:08.777Z,56
2016-01-17T11:42:08.811Z,52
2016-01-17T11:43:08.876Z,52
2016-01-17T11:44:08.973Z,52
2016-01-17T11:45:09.194Z,48
2016-01-17T11:46:09.072Z,48
2016-01-17T11:47:09.107Z,48
2016-01-17T11:48:09.140Z,44
2016-01-17T11:49:09.034Z,44
2016-01-17T11:50:09.270Z,48
2016-01-17T11:51:09.258Z,48
2016-01-17T11:52:09.338Z,44
2016-01-17T11:53:09.404Z,48
2016-01-17T11:54:09.438Z,44
2016-01-17T11:55:09.487Z,44
2016-01-17T11:56:09.536Z,40
2016-01-17T11:57:09.602Z,40
2016-01-17T11:58:09.651Z,40
2016-01-17T11:59:09.716Z,36
2016-01-17T12:00:09.766Z,36
2016-01-17T12:01:09.800Z,36
2016-01-17T12:02:09.850Z,36
2016-01-17T12:03:09.914Z,36
2016-01-17T12:04:09.980Z,36
2016-01-17T12:05:10.030Z,36
2016-01-17T12:06:10.094Z,32
2016-01-17T12:07:10.113Z,32
2016-01-17T12:08:10.163Z,32
2016-01-17T12:09:10.228Z,36
2016-01-17T12:10:10.261Z,32
2016-01-17T12:11:10.327Z,32
2016-01-17T12:12:10.377Z,32
2016-01-17T12:13:10.458Z,28
2016-01-17T12:14:10.554Z,32
2016-01-17T12:15:10.540Z,28
2016-01-17T12:16:10.591Z,28
2016-01-17T12:17:10.655Z,28
2016-01-17T12:18:10.736Z,32
2016-01-17T12:19:11.693Z,32
2016-01-17T12:20:10.820Z,32
2016-01-17T12:21:10.869Z,32
2016-01-17T12:22:10.919Z,32
2016-01-17T12:23:10.968Z,32
2016-01-17T12:24:11.049Z,28
2016-01-17T12:25:11.083Z,28
2016-01-17T12:26:11.148Z,28
2016-01-17T12:27:11.292Z,28
2016-01-17T12:28:11.263Z,32
2016-01-17T12:29:11.297Z,32
2016-01-17T12:30:11.362Z,32
2016-01-17T12:31:11.396Z,28
2016-01-17T12:32:11.461Z,28
2016-01-17T12:33:11.511Z,24
2016-01-17T12:34:11.561Z,28
2016-01-17T12:35:11.626Z,32
2016-01-17T12:36:11.691Z,28
2016-01-17T12:37:11.725Z,28
2016-01-17T12:38:11.775Z,28
2016-01-17T12:39:11.856Z,32
2016-01-17T12:40:11.920Z,32
2016-01-17T12:41:12.517Z,32
2016-01-17T12:42:12.019Z,32
2016-01-17T12:43:12.054Z,32
2016-01-17T12:44:12.103Z,32
2016-01-17T12:45:12.185Z,32
2016-01-17T12:46:12.327Z,32
2016-01-17T12:47:12.283Z,36
2016-01-17T12:48:12.332Z,32
2016-01-17T12:49:12.366Z,32
2016-01-17T12:50:12.432Z,48
2016-01-17T12:51:12.496Z,48
2016-01-17T12:52:12.531Z,44
2016-01-17T12:53:12.596Z,44
2016-01-17T12:54:12.724Z,44
2016-01-17T12:55:12.711Z,40
2016-01-17T12:56:12.745Z,40
2016-01-17T12:57:12.810Z,40
2016-01-17T12:58:12.859Z,40
2016-01-17T12:59:12.940Z,44
2016-01-17T13:00:12.975Z,44
2016-01-17T13:01:13.023Z,44
2016-01-17T13:02:13.089Z,44
2016-01-17T13:03:13.139Z,44
2016-01-17T13:04:13.194Z,40
2016-01-17T13:05:12.992Z,40
2016-01-17T13:06:13.324Z,40
2016-01-17T13:07:13.342Z,40
2016-01-17T13:08:13.407Z,36
2016-01-17T13:09:13.457Z,36
2016-01-17T13:10:13.522Z,32
2016-01-17T13:11:13.571Z,32
2016-01-17T13:12:13.637Z,36
2016-01-17T13:13:13.702Z,32
2016-01-17T13:14:13.736Z,28
2016-01-17T13:15:13.785Z,28
2016-01-17T13:16:13.851Z,28
2016-01-17T13:17:13.885Z,24
2016-01-17T13:18:13.965Z,28
2016-01-17T13:19:14.015Z,24
2016-01-17T13:20:14.049Z,24
2016-01-17T13:21:14.098Z,24
2016-01-17T13:22:14.163Z,24
2016-01-17T13:23:14.213Z,28
2016-01-17T13:24:14.279Z,24
2016-01-17T13:25:14.343Z,24
2016-01-17T13:26:14.393Z,24
2016-01-17T13:27:14.427Z,24
2016-01-17T13:28:14.493Z,24
2016-01-17T13:29:14.542Z,24
2016-01-17T13:30:14.607Z,20
2016-01-17T13:31:14.673Z,20
2016-01-17T13:32:14.769Z,20
2016-01-17T13:33:14.755Z,20
2016-01-17T13:34:14.821Z,20
2016-01-17T13:35:14.870Z,16
2016-01-17T13:36:14.936Z,16
2016-01-17T13:37:14.985Z,16
2016-01-17T13:38:15.050Z,16
2016-01-17T13:39:15.084Z,16
2016-01-17T13:40:15.133Z,16
2016-01-17T13:41:15.214Z,16
2016-01-17T13:42:15.264Z,16
2016-01-17T13:43:15.313Z,16
2016-01-17T13:44:15.363Z,20
2016-01-17T13:45:15.413Z,20
2016-01-17T13:46:15.463Z,16
2016-01-17T13:47:15.512Z,16
2016-01-17T13:48:15.593Z,16
2016-01-17T13:49:15.658Z,16
2016-01-17T13:50:15.708Z,16
2016-01-17T13:51:15.741Z,16
2016-01-17T13:52:15.791Z,16
2016-01-17T13:53:15.841Z,12
2016-01-17T13:54:15.891Z,12
2016-01-17T13:55:15.956Z,12
2016-01-17T13:56:16.005Z,12
2016-01-17T13:57:16.071Z,12
2016-01-17T13:58:16.135Z,12
2016-01-17T13:59:16.201Z,12
2016-01-17T14:00:16.250Z,12
2016-01-17T14:01:16.284Z,12
2016-01-17T14:02:16.350Z,8
2016-01-17T14:03:16.399Z,8
2016-01-17T14:04:16.481Z,8
2016-01-17T14:05:16.653Z,8
2016-01-17T14:06:16.564Z,8
2016-01-17T14:07:16.613Z,8
2016-01-17T14:08:16.725Z,8
2016-01-17T14:09:16.727Z,8
2016-01-17T14:10:16.777Z,4
2016-01-17T14:11:16.842Z,4
2016-01-17T14:12:16.892Z,4
2016-01-17T14:13:16.941Z,4
2016-01-17T14:14:17.022Z,8
2016-01-17T14:15:17.072Z,8
2016-01-17T14:16:17.153Z,4
2016-01-17T14:17:17.155Z,4
2016-01-17T14:18:17.269Z,8
2016-01-17T14:19:17.286Z,8
2016-01-17T14:20:17.320Z,8
2016-01-17T14:21:17.386Z,4
2016-01-17T14:22:17.435Z,36
2016-01-17T14:23:17.516Z,36
2016-01-17T14:24:17.565Z,32
2016-01-17T14:25:17.599Z,32
2016-01-17T14:26:17.665Z,32
2016-01-17T14:27:17.714Z,32
2016-01-17T14:28:17.779Z,32
2016-01-17T14:29:17.813Z,32
2016-01-17T14:30:17.893Z,32
2016-01-17T14:31:17.945Z,36
2016-01-17T14:32:17.948Z,32
2016-01-17T14:33:17.999Z,32
2016-01-17T14:34:18.034Z,36
2016-01-17T14:35:18.100Z,36
2016-01-17T14:36:18.128Z,36
2016-01-17T14:37:18.203Z,32
2016-01-17T14:38:18.248Z,36
2016-01-17T14:39:18.293Z,36
2016-01-17T14:40:18.337Z,36
2016-01-17T14:41:18.400Z,36
2016-01-17T14:42:18.432Z,36
2016-01-17T14:43:18.511Z,32
2016-01-17T14:44:18.543Z,32
2016-01-17T14:45:18.621Z,28
2016-01-17T14:46:18.655Z,28
2016-01-17T14:47:18.704Z,32
2016-01-17T14:48:18.752Z,32
2016-01-17T14:49:18.817Z,28
2016-01-17T14:50:18.882Z,28
2016-01-17T14:51:18.915Z,28
2016-01-17T14:52:18.996Z,28
2016-01-17T14:53:19.029Z,28
2016-01-17T14:54:19.094Z,28
2016-01-17T14:55:19.143Z,28
2016-01-17T14:56:19.317Z,28
2016-01-17T14:57:19.243Z,28
2016-01-17T14:58:19.323Z,28
2016-01-17T14:59:20.106Z,28
2016-01-17T15:00:20.079Z,28
2016-01-17T15:01:20.175Z,28
2016-01-17T15:02:20.317Z,32
2016-01-17T15:03:21.024Z,32
2016-01-17T15:04:19.886Z,28
2016-01-17T15:05:19.670Z,32
2016-01-17T15:06:19.860Z,28
2016-01-17T15:07:19.801Z,28
2016-01-17T15:08:19.850Z,28
2016-01-17T15:09:19.916Z,32
2016-01-17T15:10:19.949Z,32
2016-01-17T15:11:20.046Z,28
2016-01-17T15:12:20.080Z,28
2016-01-17T15:13:20.114Z,28
2016-01-17T15:14:20.194Z,32
2016-01-17T15:15:20.227Z,28
2016-01-17T15:16:20.293Z,32
2016-01-17T15:17:20.343Z,28
2016-01-17T15:18:20.393Z,32
2016-01-17T15:19:20.443Z,32
2016-01-17T15:20:20.523Z,32
2016-01-17T15:21:20.557Z,32
2016-01-17T15:22:20.637Z,28
2016-01-17T15:23:20.672Z,28
2016-01-17T15:24:20.752Z,32
2016-01-17T15:25:21.208Z,28
2016-01-17T15:26:20.867Z,28
2016-01-17T15:27:20.885Z,28
2016-01-17T15:28:20.982Z,32
2016-01-17T15:29:21.016Z,32
2016-01-17T15:30:21.081Z,28
2016-01-17T15:31:21.146Z,28
2016-01-17T15:32:21.211Z,28
2016-01-17T15:33:21.231Z,28
2016-01-17T15:34:21.279Z,28
2016-01-17T15:35:21.344Z,28
2016-01-17T15:36:21.410Z,28
2016-01-17T15:37:21.444Z,28
2016-01-17T15:38:21.509Z,28
2016-01-17T15:39:21.558Z,28
2016-01-17T15:40:21.639Z,24
2016-01-17T15:41:21.689Z,28
2016-01-17T15:42:21.738Z,28
2016-01-17T15:43:22.211Z,28
2016-01-17T15:44:21.838Z,24
2016-01-17T15:45:21.902Z,24
2016-01-17T15:46:21.937Z,24
2016-01-17T15:47:22.002Z,24
2016-01-17T15:48:22.067Z,28
2016-01-17T15:49:22.101Z,28
2016-01-17T15:50:22.166Z,24
2016-01-17T15:51:22.216Z,24
2016-01-17T15:52:22.344Z,24
2016-01-17T15:53:22.347Z,20
2016-01-17T15:54:22.396Z,28
2016-01-17T15:55:22.460Z,20
2016-01-17T15:56:22.495Z,24
2016-01-17T15:57:22.560Z,28
2016-01-17T15:58:22.610Z,28
2016-01-17T15:59:22.516Z,28
2016-01-17T16:00:22.565Z,28
2016-01-17T16:01:22.771Z,28
2016-01-17T16:02:22.837Z,24
2016-01-17T16:03:22.870Z,28
2016-01-17T16:04:22.951Z,28
2016-01-17T16:05:22.985Z,28
2016-01-17T16:06:23.285Z,28
2016-01-17T16:07:23.101Z,28
2016-01-17T16:08:23.151Z,24
2016-01-17T16:09:23.216Z,24
2016-01-17T16:10:23.265Z,28
2016-01-17T16:11:23.331Z,24
2016-01-17T16:12:23.396Z,28
2016-01-17T16:13:23.446Z,24
2016-01-17T16:14:23.511Z,20
2016-01-17T16:15:23.561Z,24
2016-01-17T16:16:23.595Z,16
2016-01-17T16:17:23.816Z,28
2016-01-17T16:18:23.804Z,28
2016-01-17T16:19:23.775Z,8
2016-01-17T16:20:23.840Z,8
2016-01-17T16:21:23.874Z,8
2016-01-17T16:22:24.001Z,8
2016-01-17T16:23:24.021Z,8
2016-01-17T16:24:24.538Z,8
2016-01-17T16:25:24.307Z,8
2016-01-17T16:26:24.201Z,8
2016-01-17T16:27:24.203Z,8
2016-01-17T16:28:24.299Z,8
2016-01-17T16:29:24.333Z,8
2016-01-17T16:30:24.462Z,8
2016-01-17T16:31:24.479Z,24
2016-01-17T16:32:24.482Z,28
2016-01-17T16:33:24.548Z,28
2016-01-17T16:34:24.612Z,28
2016-01-17T16:35:24.772Z,28
2016-01-17T16:36:24.742Z,24
2016-01-17T16:37:24.762Z,24
2016-01-17T16:38:24.826Z,28
2016-01-17T16:39:24.907Z,24
2016-01-17T16:40:25.066Z,28
2016-01-17T16:41:25.288Z,24
2016-01-17T16:42:25.040Z,8
2016-01-17T16:43:25.090Z,8
2016-01-17T16:44:25.155Z,8
2016-01-17T16:45:25.220Z,8
2016-01-17T16:46:25.317Z,4
2016-01-17T16:47:25.335Z,4
2016-01-17T16:48:25.369Z,4
2016-01-17T16:49:25.668Z,4
2016-01-17T16:50:25.563Z,4
2016-01-17T16:51:25.611Z,4
2016-01-17T16:52:25.598Z,4
2016-01-17T16:53:25.664Z,4
2016-01-17T16:54:25.713Z,4
2016-01-17T16:55:25.794Z,24
2016-01-17T16:56:25.829Z,24
2016-01-17T16:57:25.877Z,24
2016-01-17T16:58:25.927Z,24
2016-01-17T16:59:26.087Z,24
2016-01-17T17:00:26.573Z,24
2016-01-17T17:01:26.107Z,24
2016-01-17T17:02:26.013Z,24
2016-01-17T17:03:26.224Z,24
2016-01-17T17:04:26.273Z,24
2016-01-17T17:05:26.340Z,24
2016-01-17T17:06:26.389Z,24
2016-01-17T17:07:26.439Z,24
2016-01-17T17:08:26.487Z,24
2016-01-17T17:09:26.554Z,24
2016-01-17T17:10:26.603Z,24
2016-01-17T17:11:26.668Z,24
2016-01-17T17:12:26.702Z,24
2016-01-17T17:13:26.782Z,24
2016-01-17T17:14:26.833Z,24
2016-01-17T17:15:26.866Z,24
2016-01-17T17:16:26.947Z,24
2016-01-17T17:17:26.997Z,24
2016-01-17T17:18:27.047Z,24
2016-01-17T17:19:27.299Z,24
2016-01-17T17:20:27.161Z,24
2016-01-17T17:21:27.226Z,24
2016-01-17T17:22:27.275Z,24
2016-01-17T17:23:27.325Z,24
2016-01-17T17:24:27.391Z,24
2016-01-17T17:25:27.425Z,24
2016-01-17T17:26:27.491Z,24
2016-01-17T17:27:27.555Z,24
2016-01-17T17:28:27.622Z,24
2016-01-17T17:29:27.670Z,24
2016-01-17T17:30:27.580Z,24
2016-01-17T17:31:27.770Z,24
2016-01-17T17:32:27.836Z,24
2016-01-17T17:33:27.885Z,24
2016-01-17T17:34:27.950Z,24
2016-01-17T17:35:27.999Z,24
2016-01-17T17:36:28.049Z,24
2016-01-17T17:37:28.114Z,24
2016-01-17T17:38:28.180Z,24
2016-01-17T17:39:28.213Z,24
2016-01-17T17:40:28.280Z,24
2016-01-17T17:41:28.328Z,24
2016-01-17T17:42:28.410Z,24
2016-01-17T17:43:28.458Z,24
2016-01-17T17:44:28.494Z,24
2016-01-17T17:45:28.558Z,24
2016-01-17T17:46:28.607Z,24
2016-01-17T17:47:28.674Z,24
2016-01-17T17:48:28.723Z,24
2016-01-17T17:49:28.772Z,24
2016-01-17T17:50:28.837Z,24
2016-01-17T17:51:28.903Z,24
2016-01-17T17:52:28.937Z,24
2016-01-17T17:53:29.002Z,24
2016-01-17T17:54:29.052Z,24
2016-01-17T17:55:29.116Z,24
2016-01-17T17:56:29.182Z,24
2016-01-17T17:57:29.215Z,24
2016-01-17T17:58:29.281Z,24
2016-01-17T17:59:29.331Z,24
2016-01-17T18:00:29.379Z,24
2016-01-17T18:01:29.429Z,24
2016-01-17T18:02:29.510Z,24
2016-01-17T18:03:29.560Z,24
2016-01-17T18:04:29.656Z,24
2016-01-17T18:05:29.675Z,24
2016-01-17T18:06:29.725Z,24
2016-01-17T18:07:29.773Z,24
2016-01-17T18:08:29.823Z,24
2016-01-17T18:09:29.888Z,24
2016-01-17T18:10:29.954Z,24
2016-01-17T18:11:29.988Z,24
2016-01-17T18:12:30.053Z,24
2016-01-17T18:13:30.119Z,24
2016-01-17T18:14:30.152Z,24
2016-01-17T18:15:30.217Z,24
2016-01-17T18:16:30.313Z,24
2016-01-17T18:17:30.332Z,24
2016-01-17T18:18:30.382Z,24
2016-01-17T18:19:30.447Z,24
2016-01-17T18:20:30.512Z,24
2016-01-17T18:21:30.546Z,24
2016-01-17T18:22:30.611Z,24
2016-01-17T18:23:30.660Z,24
2016-01-17T18:24:30.554Z,24
2016-01-17T18:25:30.776Z,24
2016-01-17T18:26:30.824Z,24
2016-01-17T18:27:30.890Z,24
2016-01-17T18:28:30.924Z,24
2016-01-17T18:29:30.990Z,24
2016-01-17T18:30:31.054Z,24
2016-01-17T18:31:31.087Z,24
2016-01-17T18:32:31.232Z,24
2016-01-17T18:33:31.219Z,24
2016-01-17T18:34:31.268Z,24
2016-01-17T18:35:31.317Z,24
2016-01-17T18:36:31.367Z,24
2016-01-17T18:37:31.433Z,24
2016-01-17T18:38:31.514Z,24
2016-01-17T18:39:31.548Z,24
2016-01-17T18:40:31.628Z,24
2016-01-17T18:41:31.662Z,24
2016-01-17T18:42:31.711Z,24
2016-01-17T18:43:31.777Z,24
2016-01-17T18:44:31.905Z,24
2016-01-17T18:45:31.876Z,24
2016-01-17T18:46:31.941Z,24
2016-01-17T18:47:32.006Z,24
2016-01-17T18:48:32.041Z,24
2016-01-17T18:49:32.121Z,24
2016-01-17T18:50:32.155Z,24
2016-01-17T18:51:32.221Z,24
2016-01-17T18:52:32.255Z,24
2016-01-17T18:53:32.319Z,24
2016-01-17T18:54:32.368Z,28
2016-01-17T18:55:32.434Z,24
2016-01-17T18:56:32.484Z,28
2016-01-17T18:57:32.533Z,28
2016-01-17T18:58:32.598Z,24
2016-01-17T18:59:32.649Z,24
2016-01-17T19:00:32.698Z,24
2016-01-17T19:01:32.763Z,24
2016-01-17T19:02:32.812Z,24
2016-01-17T19:03:32.909Z,24
2016-01-17T19:04:32.927Z,24
2016-01-17T19:05:32.992Z,28
2016-01-17T19:06:33.042Z,28
2016-01-17T19:07:33.076Z,28
2016-01-17T19:08:33.157Z,28
2016-01-17T19:09:33.190Z,28
2016-01-17T19:10:33.272Z,24
2016-01-17T19:11:33.306Z,24
2016-01-17T19:12:33.605Z,24
2016-01-17T19:13:33.420Z,20
2016-01-17T19:14:33.485Z,24
2016-01-17T19:15:33.536Z,24
2016-01-17T19:16:33.584Z,28
2016-01-17T19:17:33.649Z,24
2016-01-17T19:18:33.683Z,4
2016-01-17T19:19:33.749Z,4
2016-01-17T19:20:33.799Z,4
2016-01-17T19:21:33.863Z,4
2016-01-17T19:22:33.914Z,4
2016-01-17T19:23:33.978Z,4
2016-01-17T19:24:34.027Z,4
2016-01-17T19:25:34.077Z,4
2016-01-17T19:26:34.134Z,4
2016-01-17T19:27:34.184Z,4
2016-01-17T19:28:34.233Z,4
2016-01-17T19:29:34.298Z,4
2016-01-17T19:30:34.363Z,4
2016-01-17T19:31:34.413Z,4
2016-01-17T19:32:34.478Z,4
2016-01-17T19:33:34.527Z,4
2016-01-17T19:34:34.578Z,4
2016-01-17T19:35:34.627Z,4
2016-01-17T19:36:34.677Z,4
2016-01-17T19:37:34.741Z,4
2016-01-17T19:38:34.823Z,4
2016-01-17T19:39:34.856Z,4
2016-01-17T19:40:34.905Z,4
2016-01-17T19:41:34.971Z,4
2016-01-17T19:42:35.021Z,4
2016-01-17T19:43:35.071Z,4
2016-01-17T19:44:35.119Z,4
2016-01-17T19:45:35.185Z,0
2016-01-17T19:46:35.235Z,0
2016-01-17T19:47:35.285Z,0
2016-01-17T19:48:35.521Z,0
2016-01-17T19:49:35.242Z,0
2016-01-17T19:50:36.043Z,0
2016-01-17T19:51:35.654Z,0
2016-01-17T19:52:35.563Z,0
2016-01-17T19:53:35.628Z,0
2016-01-17T19:54:35.693Z,0
2016-01-17T19:55:35.743Z,0
2016-01-17T19:56:36.059Z,0
2016-01-17T19:57:36.155Z,4
2016-01-17T19:58:35.892Z,4
2016-01-17T19:59:35.957Z,4
2016-01-17T20:00:36.022Z,4
2016-01-17T20:01:36.056Z,4
2016-01-17T20:02:36.122Z,4
2016-01-17T20:03:36.170Z,4
2016-01-17T20:04:36.220Z,4
2016-01-17T20:05:36.286Z,4
2016-01-17T20:06:36.336Z,4
2016-01-17T20:07:36.401Z,4
2016-01-17T20:08:36.450Z,4
2016-01-17T20:09:36.500Z,4
2016-01-17T20:10:36.564Z,4
2016-01-17T20:11:36.630Z,4
2016-01-17T20:12:36.664Z,4
2016-01-17T20:13:36.729Z,4
2016-01-17T20:14:36.779Z,4
2016-01-17T20:15:36.828Z,4
2016-01-17T20:16:36.894Z,4
2016-01-17T20:17:36.943Z,4
2016-01-17T20:18:37.008Z,4
2016-01-17T20:19:37.058Z,4
2016-01-17T20:20:37.107Z,4
2016-01-17T20:21:37.157Z,4
2016-01-17T20:22:37.221Z,4
2016-01-17T20:23:37.272Z,4
2016-01-17T20:24:37.337Z,4
2016-01-17T20:25:37.387Z,4
2016-01-17T20:26:37.436Z,4
2016-01-17T20:27:37.501Z,4
2016-01-17T20:28:37.551Z,4
2016-01-17T20:29:37.600Z,4
2016-01-17T20:30:37.651Z,4
2016-01-17T20:31:37.700Z,4
2016-01-17T20:32:37.765Z,4
2016-01-17T20:33:37.814Z,4
2016-01-17T20:34:37.878Z,4
2016-01-17T20:35:37.992Z,4
2016-01-17T20:36:38.009Z,4
2016-01-17T20:37:38.059Z,4
2016-01-17T20:38:38.109Z,4
2016-01-17T20:39:38.142Z,4
2016-01-17T20:40:38.224Z,4
2016-01-17T20:41:38.117Z,4
2016-01-17T20:42:38.308Z,4
2016-01-17T20:43:38.388Z,4
2016-01-17T20:44:38.453Z,4
2016-01-17T20:45:38.472Z,4
2016-01-17T20:46:38.536Z,4
2016-01-17T20:47:38.586Z,4
2016-01-17T20:48:38.651Z,4
2016-01-17T20:49:38.701Z,4
2016-01-17T20:50:38.751Z,4
2016-01-17T20:51:39.019Z,4
2016-01-17T20:52:38.866Z,4
2016-01-17T20:53:38.915Z,4
2016-01-17T20:54:38.965Z,4
2016-01-17T20:55:39.061Z,4
2016-01-17T20:56:39.096Z,4
2016-01-17T20:57:39.145Z,4
2016-01-17T20:58:39.193Z,4
2016-01-17T20:59:39.243Z,4
2016-01-17T21:00:39.309Z,4
2016-01-17T21:01:39.359Z,4
2016-01-17T21:02:39.301Z,4
2016-01-17T21:03:39.555Z,4
2016-01-17T21:04:39.526Z,4
2016-01-17T21:05:39.578Z,4
2016-01-17T21:06:39.642Z,4
2016-01-17T21:07:39.676Z,4
2016-01-17T21:08:39.742Z,4
2016-01-17T21:09:39.806Z,4
2016-01-17T21:10:39.841Z,4
2016-01-17T21:11:39.905Z,4
2016-01-17T21:12:39.971Z,4
2016-01-17T21:13:40.021Z,4
2016-01-17T21:14:40.086Z,4
2016-01-17T21:15:40.119Z,4
2016-01-17T21:16:40.185Z,4
2016-01-17T21:17:40.235Z,4
2016-01-17T21:18:40.299Z,4
2016-01-17T21:19:40.333Z,4
2016-01-17T21:20:40.399Z,4
2016-01-17T21:21:40.449Z,4
2016-01-17T21:22:40.827Z,4
2016-01-17T21:23:40.579Z,4
2016-01-17T21:24:40.613Z,4
2016-01-17T21:25:40.678Z,4
2016-01-17T21:26:40.727Z,4
2016-01-17T21:27:40.776Z,4
2016-01-17T21:28:40.827Z,4
2016-01-17T21:29:40.892Z,4
2016-01-17T21:30:40.973Z,4
2016-01-17T21:31:40.991Z,4
2016-01-17T21:32:41.057Z,4
2016-01-17T21:33:41.121Z,4
2016-01-17T21:34:41.170Z,4
2016-01-17T21:35:41.220Z,4
2016-01-17T21:36:41.286Z,4
2016-01-17T21:37:41.336Z,4
2016-01-17T21:38:41.384Z,4
2016-01-17T21:39:41.434Z,4
2016-01-17T21:40:41.500Z,4
2016-01-17T21:41:41.564Z,4
2016-01-17T21:42:41.599Z,4
2016-01-17T21:43:41.664Z,4
2016-01-17T21:44:41.714Z,4
2016-01-17T21:45:41.763Z,4
2016-01-17T21:46:41.813Z,4
2016-01-17T21:47:41.877Z,4
2016-01-17T21:48:41.943Z,4
2016-01-17T21:49:41.993Z,4
2016-01-17T21:50:42.041Z,4
2016-01-17T21:51:42.201Z,4
2016-01-17T21:52:42.154Z,4
2016-01-17T21:53:42.220Z,4
2016-01-17T21:54:42.269Z,4
2016-01-17T21:55:42.302Z,4
2016-01-17T21:56:42.369Z,4
2016-01-17T21:57:42.418Z,4
2016-01-17T21:58:42.468Z,4
2016-01-17T21:59:42.548Z,4
2016-01-17T22:00:42.598Z,32
2016-01-17T22:01:42.648Z,0
2016-01-17T22:02:42.696Z,0
2016-01-17T22:03:42.747Z,0
2016-01-17T22:04:42.812Z,0
2016-01-17T22:05:42.862Z,0
2016-01-17T22:06:43.317Z,0
2016-01-17T22:07:42.976Z,0
2016-01-17T22:08:43.026Z,0
2016-01-17T22:09:43.075Z,0
2016-01-17T22:10:43.141Z,0
2016-01-17T22:11:43.190Z,0
2016-01-17T22:12:43.240Z,0
2016-01-17T22:13:43.306Z,0
2016-01-17T22:14:43.513Z,0
2016-01-17T22:15:43.405Z,0
2016-01-17T22:16:43.455Z,0
2016-01-17T22:17:43.504Z,0
2016-01-17T22:18:43.571Z,0
2016-01-17T22:19:43.619Z,0
2016-01-17T22:20:43.685Z,0
2016-01-17T22:21:43.750Z,0
2016-01-17T22:22:43.785Z,0
2016-01-17T22:23:43.849Z,0
2016-01-17T22:24:43.914Z,0
2016-01-17T22:25:43.949Z,0
2016-01-17T22:26:43.998Z,0
2016-01-17T22:27:44.157Z,0
2016-01-17T22:28:44.128Z,0
2016-01-17T22:29:44.162Z,0
2016-01-17T22:30:44.259Z,0
2016-01-17T22:31:44.293Z,0
2016-01-17T22:32:44.326Z,0
2016-01-17T22:33:44.595Z,0
2016-01-17T22:34:44.426Z,0
2016-01-17T22:35:44.506Z,0
2016-01-17T22:36:44.556Z,0
2016-01-17T22:37:44.653Z,0
2016-01-17T22:38:44.671Z,0
2016-01-17T22:39:44.720Z,0
2016-01-17T22:40:44.769Z,0
2016-01-17T22:41:45.085Z,0
2016-01-17T22:42:44.885Z,0
2016-01-17T22:43:44.966Z,0
2016-01-17T22:44:45.000Z,0
2016-01-17T22:45:45.049Z,0
2016-01-17T22:46:45.083Z,0
2016-01-17T22:47:45.164Z,0
2016-01-17T22:48:45.197Z,0
2016-01-17T22:49:45.263Z,0
2016-01-17T22:50:45.313Z,0
2016-01-17T22:51:45.394Z,0
2016-01-17T22:52:45.428Z,0
2016-01-17T22:53:45.524Z,0
2016-01-17T22:54:45.526Z,0
2016-01-17T22:55:45.623Z,0
2016-01-17T22:56:45.657Z,0
2016-01-17T22:57:45.707Z,0
2016-01-17T22:58:45.740Z,0
2016-01-17T22:59:46.181Z,0
2016-01-17T23:00:45.887Z,0
2016-01-17T23:01:45.920Z,0
2016-01-17T23:02:45.954Z,0
2016-01-17T23:03:46.020Z,0
2016-01-17T23:04:46.100Z,0
2016-01-17T23:05:46.151Z,0
2016-01-17T23:06:46.184Z,0
2016-01-17T23:07:46.234Z,0
2016-01-17T23:08:46.298Z,0
2016-01-17T23:09:46.348Z,0
2016-01-17T23:10:46.414Z,0
2016-01-17T23:11:46.448Z,0
2016-01-17T23:12:46.512Z,0
2016-01-17T23:13:46.562Z,0
2016-01-17T23:14:46.627Z,0
2016-01-17T23:15:46.677Z,0
2016-01-17T23:16:46.727Z,0
2016-01-17T23:17:46.775Z,0
2016-01-17T23:18:46.858Z,0
2016-01-17T23:19:47.172Z,0
2016-01-17T23:20:46.955Z,0
2016-01-17T23:21:47.022Z,0
2016-01-17T23:22:47.071Z,0
2016-01-17T23:23:47.121Z,0
2016-01-17T23:24:47.169Z,0
2016-01-17T23:25:47.219Z,0
2016-01-17T23:26:47.285Z,0
2016-01-17T23:27:47.335Z,0
2016-01-17T23:28:47.384Z,0
2016-01-17T23:29:47.449Z,0
2016-01-17T23:30:47.482Z,0
2016-01-17T23:31:47.549Z,0
2016-01-17T23:32:47.598Z,0
2016-01-17T23:33:47.663Z,0
2016-01-17T23:34:47.713Z,0
2016-01-17T23:35:47.778Z,0
2016-01-17T23:36:48.038Z,0
2016-01-17T23:37:47.866Z,0
2016-01-17T23:38:47.887Z,0
2016-01-17T23:39:47.938Z,0
2016-01-17T23:40:47.975Z,0
2016-01-17T23:41:48.042Z,0
2016-01-17T23:42:48.068Z,0
2016-01-17T23:43:48.113Z,0
2016-01-17T23:44:48.174Z,0
2016-01-17T23:45:48.233Z,0
2016-01-17T23:46:48.262Z,0
2016-01-17T23:47:48.342Z,0
2016-01-17T23:48:48.374Z,0
2016-01-17T23:49:48.437Z,0
2016-01-17T23:50:48.485Z,0
2016-01-17T23:51:48.533Z,0
2016-01-17T23:52:48.598Z,0
2016-01-17T23:53:48.631Z,0
2016-01-17T23:54:48.695Z,0
2016-01-17T23:55:48.744Z,0
2016-01-17T23:56:48.793Z,0
2016-01-17T23:57:48.873Z,0
2016-01-17T23:58:48.938Z,0
2016-01-17T23:59:48.971Z,0
